createdAt,value
2018-08-23T00:01:15.115Z,87.99
2018-08-23T00:03:42.847Z,88.33
2018-08-23T00:06:10.530Z,88.14
2018-08-23T00:08:38.307Z,87.76
2018-08-23T00:11:06.040Z,88.38
2018-08-23T00:13:39.305Z,87.69
2018-08-23T00:16:07.492Z,88.69
2018-08-23T00:18:35.140Z,88.61
2018-08-23T00:21:03.215Z,88.82
2018-08-23T00:23:30.884Z,88.60
2018-08-23T00:25:58.652Z,88.84
2018-08-23T00:28:26.332Z,88.62
2018-08-23T00:30:53.983Z,88.67
2018-08-23T00:33:21.665Z,88.33
2018-08-23T00:35:49.329Z,88.58
2018-08-23T00:38:17.227Z,89.03
2018-08-23T00:40:45.114Z,88.61
2018-08-23T00:43:13.736Z,88.07
2018-08-23T00:45:41.450Z,88.31
2018-08-23T00:48:09.124Z,88.42
2018-08-23T00:50:59.856Z,88.67
2018-08-23T00:53:28.742Z,88.44
2018-08-23T00:56:12.488Z,88.43
2018-08-23T00:58:43.928Z,88.36
2018-08-23T01:01:13.076Z,88.74
2018-08-23T01:03:40.921Z,88.04
2018-08-23T01:06:08.608Z,88.08
2018-08-23T01:08:36.296Z,88.88
2018-08-23T01:11:05.325Z,88.40
2018-08-23T01:13:33.054Z,88.02
2018-08-23T01:16:00.744Z,88.69
2018-08-23T01:18:28.423Z,88.43
2018-08-23T01:20:56.109Z,89.20
2018-08-23T01:23:23.772Z,88.85
2018-08-23T01:25:51.828Z,89.44
2018-08-23T01:28:19.560Z,89.46
2018-08-23T01:30:48.075Z,89.49
2018-08-23T01:33:17.080Z,89.27
2018-08-23T01:35:45.760Z,88.89
2018-08-23T01:38:14.040Z,89.41
2018-08-23T01:40:41.921Z,89.07
2018-08-23T01:43:09.587Z,89.61
2018-08-23T01:45:37.273Z,89.65
2018-08-23T01:48:06.461Z,89.51
2018-08-23T01:50:34.231Z,89.29
2018-08-23T01:53:01.952Z,89.34
2018-08-23T01:55:29.644Z,89.63
2018-08-23T01:57:57.351Z,89.24
2018-08-23T02:00:28.057Z,88.96
2018-08-23T02:02:55.819Z,89.03
2018-08-23T02:05:23.679Z,89.19
2018-08-23T02:07:51.427Z,89.26
2018-08-23T02:10:19.139Z,89.18
2018-08-23T02:12:51.007Z,88.66
2018-08-23T02:15:18.976Z,89.44
2018-08-23T02:17:53.027Z,88.93
2018-08-23T02:20:21.109Z,89.07
2018-08-23T02:22:48.808Z,89.17
2018-08-23T02:25:16.523Z,89.26
2018-08-23T02:27:58.252Z,88.92
2018-08-23T02:30:39.757Z,88.67
2018-08-23T02:33:07.576Z,89.46
2018-08-23T02:35:35.573Z,89.28
2018-08-23T02:38:03.379Z,89.50
2018-08-23T02:40:32.343Z,89.92
2018-08-23T02:43:00.004Z,89.52
2018-08-23T02:45:36.159Z,89.80
2018-08-23T02:48:04.744Z,89.96
2018-08-23T02:50:32.485Z,89.62
2018-08-23T02:53:06.105Z,89.52
2018-08-23T02:55:37.575Z,89.70
2018-08-23T02:58:05.388Z,89.80
2018-08-23T03:00:38.724Z,89.73
2018-08-23T03:03:06.488Z,89.34
2018-08-23T03:05:38.336Z,89.31
2018-08-23T03:08:06.008Z,88.89
2018-08-23T03:10:33.888Z,89.00
2018-08-23T03:13:01.564Z,89.26
2018-08-23T03:15:29.228Z,89.14
2018-08-23T03:17:56.955Z,89.32
2018-08-23T03:20:24.639Z,89.59
2018-08-23T03:22:53.782Z,89.78
2018-08-23T03:25:22.695Z,90.20
2018-08-23T03:27:51.702Z,90.23
2018-08-23T03:30:19.981Z,90.28
2018-08-23T03:32:47.698Z,90.71
2018-08-23T03:35:15.441Z,90.37
2018-08-23T03:37:43.103Z,90.04
2018-08-23T03:40:11.905Z,89.87
2018-08-23T03:42:39.689Z,90.18
2018-08-23T03:45:12.845Z,90.36
2018-08-23T03:47:46.148Z,90.39
2018-08-23T03:50:13.840Z,90.00
2018-08-23T03:52:46.040Z,89.65
2018-08-23T03:55:16.740Z,90.24
2018-08-23T03:57:50.127Z,90.13
2018-08-23T04:00:22.847Z,89.84
2018-08-23T04:02:50.501Z,90.12
2018-08-23T04:05:18.180Z,90.38
2018-08-23T04:07:45.894Z,89.86
2018-08-23T04:10:13.620Z,89.86
2018-08-23T04:12:42.545Z,89.98
2018-08-23T04:15:23.054Z,89.76
2018-08-23T04:17:51.111Z,89.75
2018-08-23T04:20:18.916Z,89.70
2018-08-23T04:22:46.618Z,90.10
2018-08-23T04:25:14.372Z,89.92
2018-08-23T04:27:42.048Z,90.03
2018-08-23T04:30:10.232Z,90.08
2018-08-23T04:32:41.807Z,90.13
2018-08-23T04:35:17.920Z,89.50
2018-08-23T04:37:45.630Z,89.98
2018-08-23T04:40:13.302Z,89.56
2018-08-23T04:42:41.096Z,89.50
2018-08-23T04:45:16.904Z,89.57
2018-08-23T04:47:48.915Z,89.59
2018-08-23T04:50:16.664Z,89.66
2018-08-23T04:52:44.420Z,89.19
2018-08-23T04:55:12.076Z,88.91
2018-08-23T04:57:39.784Z,88.65
2018-08-23T05:00:07.523Z,88.64
2018-08-23T05:02:35.295Z,88.71
2018-08-23T05:05:03.040Z,88.58
2018-08-23T05:07:30.726Z,88.61
2018-08-23T05:09:58.397Z,88.49
2018-08-23T05:12:26.472Z,88.29
2018-08-23T05:14:54.131Z,89.05
2018-08-23T05:17:21.791Z,88.52
2018-08-23T05:19:49.510Z,88.46
2018-08-23T05:22:17.432Z,88.74
2018-08-23T05:24:45.107Z,88.12
2018-08-23T05:27:12.792Z,87.92
2018-08-23T05:29:40.537Z,87.95
2018-08-23T05:32:08.263Z,87.86
2018-08-23T05:34:36.009Z,88.25
2018-08-23T05:37:03.810Z,87.58
2018-08-23T05:39:43.829Z,87.35
2018-08-23T05:42:11.522Z,87.42
2018-08-23T05:44:39.213Z,86.86
2018-08-23T05:47:06.952Z,87.53
2018-08-23T05:49:34.654Z,86.98
2018-08-23T05:52:02.359Z,86.27
2018-08-23T05:54:30.125Z,86.93
2018-08-23T05:56:57.826Z,87.05
2018-08-23T05:59:25.559Z,86.55
2018-08-23T06:01:53.295Z,86.72
2018-08-23T06:04:32.169Z,86.63
2018-08-23T06:06:59.904Z,86.01
2018-08-23T06:09:27.607Z,85.81
2018-08-23T06:11:55.277Z,85.48
2018-08-23T06:14:23.101Z,84.64
2018-08-23T06:16:56.487Z,84.58
2018-08-23T06:19:24.915Z,83.08
2018-08-23T06:21:52.637Z,83.91
2018-08-23T06:24:20.345Z,83.71
2018-08-23T06:26:50.029Z,82.46
2018-08-23T06:29:21.798Z,81.51
2018-08-23T06:32:01.717Z,81.62
2018-08-23T06:34:32.347Z,77.48
2018-08-23T06:37:00.064Z,79.81
2018-08-23T06:39:27.796Z,79.47
2018-08-23T06:41:58.019Z,79.22
2018-08-23T06:44:45.725Z,77.80
2018-08-23T06:47:14.847Z,76.89
2018-08-23T06:49:43.629Z,76.71
2018-08-23T06:52:12.988Z,74.87
2018-08-23T06:54:40.991Z,75.14
2018-08-23T06:57:08.994Z,73.80
2018-08-23T06:59:37.287Z,72.79
2018-08-23T07:02:05.088Z,72.75
2018-08-23T07:04:32.803Z,73.29
2018-08-23T07:07:00.555Z,72.55
2018-08-23T07:09:28.300Z,71.71
2018-08-23T07:12:04.712Z,70.64
2018-08-23T07:14:33.756Z,70.36
2018-08-23T07:17:16.950Z,69.10
2018-08-23T07:19:44.888Z,69.32
2018-08-23T07:22:20.897Z,68.14
2018-08-23T07:24:49.320Z,67.88
2018-08-23T07:27:18.138Z,67.28
2018-08-23T07:29:48.182Z,67.49
2018-08-23T07:32:17.035Z,66.41
2018-08-23T07:35:08.983Z,66.17
2018-08-23T07:37:38.063Z,65.66
2018-08-23T07:40:08.861Z,63.78
2018-08-23T07:42:37.437Z,61.91
2018-08-23T07:45:05.794Z,62.75
2018-08-23T07:47:35.768Z,61.69
2018-08-23T07:50:03.685Z,62.78
2018-08-23T07:52:32.300Z,62.11
2018-08-23T07:55:01.962Z,63.16
2018-08-23T07:57:31.846Z,58.46
2018-08-23T08:00:01.895Z,58.95
2018-08-23T08:02:29.812Z,58.66
2018-08-23T08:04:58.092Z,59.86
2018-08-23T08:07:31.137Z,58.32
2018-08-23T08:10:01.822Z,57.39
2018-08-23T08:12:39.078Z,57.82
2018-08-23T08:15:09.456Z,57.99
2018-08-23T08:17:37.139Z,54.24
2018-08-23T08:20:06.266Z,55.59
2018-08-23T08:22:34.040Z,53.96
2018-08-23T08:25:05.239Z,54.73
2018-08-23T08:27:32.924Z,54.33
2018-08-23T08:30:00.717Z,56.22
2018-08-23T08:32:28.436Z,53.54
2018-08-23T08:34:57.888Z,54.72
2018-08-23T08:37:26.057Z,53.88
2018-08-23T08:39:53.837Z,51.69
2018-08-23T08:42:29.676Z,53.58
2018-08-23T08:45:06.161Z,50.55
2018-08-23T08:47:33.876Z,51.08
2018-08-23T08:50:01.601Z,53.24
2018-08-23T08:52:29.692Z,52.19
2018-08-23T08:54:57.409Z,48.36
2018-08-23T08:57:30.078Z,51.38
2018-08-23T08:59:57.844Z,50.03
2018-08-23T09:02:25.601Z,51.35
2018-08-23T09:04:53.442Z,48.84
2018-08-23T09:07:25.744Z,47.83
2018-08-23T09:09:53.636Z,49.75
2018-08-23T09:12:21.383Z,47.37
2018-08-23T09:14:49.089Z,46.48
2018-08-23T09:17:49.886Z,47.73
2018-08-23T09:20:18.709Z,46.34
2018-08-23T09:22:48.439Z,46.80
2018-08-23T09:25:21.840Z,47.80
2018-08-23T09:27:50.230Z,47.26
2018-08-23T09:30:23.477Z,46.98
2018-08-23T09:32:51.230Z,45.19
2018-08-23T09:35:20.276Z,42.83
2018-08-23T09:37:52.453Z,41.94
2018-08-23T09:40:20.913Z,44.69
2018-08-23T09:42:48.707Z,44.36
2018-08-23T09:45:17.729Z,43.60
2018-08-23T09:47:45.468Z,45.40
2018-08-23T09:50:13.201Z,43.25
2018-08-23T09:52:43.562Z,41.01
2018-08-23T09:55:12.641Z,44.01
2018-08-23T09:57:40.726Z,42.81
2018-08-23T10:00:09.985Z,42.64
2018-08-23T10:02:43.313Z,41.34
2018-08-23T10:05:16.897Z,40.54
2018-08-23T10:07:50.245Z,40.75
2018-08-23T10:10:23.635Z,41.28
2018-08-23T10:12:56.900Z,42.46
2018-08-23T10:15:30.127Z,37.88
2018-08-23T10:18:03.401Z,38.04
2018-08-23T10:21:08.044Z,38.92
2018-08-23T10:23:35.784Z,38.57
2018-08-23T10:26:09.100Z,39.18
2018-08-23T10:28:42.556Z,38.95
2018-08-23T10:31:10.320Z,39.08
2018-08-23T10:33:38.051Z,40.08
2018-08-23T10:36:05.868Z,40.65
2018-08-23T10:38:33.617Z,39.02
2018-08-23T10:41:05.320Z,41.64
2018-08-23T10:43:38.587Z,37.82
2018-08-23T10:46:06.672Z,39.02
2018-08-23T10:48:34.402Z,37.62
2018-08-23T10:51:02.245Z,37.44
2018-08-23T10:53:30.007Z,39.22
2018-08-23T10:55:57.704Z,36.51
2018-08-23T10:58:25.434Z,35.72
2018-08-23T11:00:53.200Z,38.42
2018-08-23T11:03:20.913Z,38.40
2018-08-23T11:05:48.676Z,37.34
2018-08-23T11:08:21.929Z,36.03
2018-08-23T11:10:55.206Z,34.04
2018-08-23T11:13:28.597Z,32.69
2018-08-23T11:16:01.985Z,36.17
2018-08-23T11:18:35.405Z,38.97
2018-08-23T11:21:03.143Z,34.64
2018-08-23T11:23:30.876Z,37.29
2018-08-23T11:25:58.669Z,37.48
2018-08-23T11:28:26.908Z,37.71
2018-08-23T11:30:59.135Z,37.22
2018-08-23T11:33:26.879Z,38.38
2018-08-23T11:35:54.671Z,37.29
2018-08-23T11:38:22.376Z,36.45
2018-08-23T11:40:50.148Z,36.23
2018-08-23T11:43:17.910Z,35.01
2018-08-23T11:45:45.730Z,35.52
2018-08-23T11:48:13.435Z,35.64
2018-08-23T11:50:41.186Z,34.30
2018-08-23T11:53:08.979Z,38.07
2018-08-23T11:55:36.649Z,38.01
2018-08-23T11:58:04.493Z,35.85
2018-08-23T12:00:32.213Z,37.26
2018-08-23T12:02:59.900Z,37.13
2018-08-23T12:05:27.605Z,38.30
2018-08-23T12:07:55.415Z,38.13
2018-08-23T12:10:24.167Z,37.82
2018-08-23T12:12:53.095Z,37.55
2018-08-23T12:15:23.858Z,38.46
2018-08-23T12:17:52.175Z,39.09
2018-08-23T12:20:19.971Z,40.14
2018-08-23T12:22:47.752Z,39.79
2018-08-23T12:25:15.540Z,39.27
2018-08-23T12:27:47.788Z,40.31
2018-08-23T12:30:15.555Z,41.57
2018-08-23T12:32:43.280Z,40.84
2018-08-23T12:35:11.012Z,39.43
2018-08-23T12:37:44.397Z,39.44
2018-08-23T12:40:17.762Z,39.47
2018-08-23T12:42:49.955Z,38.07
2018-08-23T12:45:17.730Z,38.60
2018-08-23T12:47:45.429Z,40.92
2018-08-23T12:50:13.267Z,37.63
2018-08-23T12:52:41.646Z,37.12
2018-08-23T12:55:10.278Z,38.08
2018-08-23T12:57:38.025Z,38.46
2018-08-23T13:00:05.880Z,37.97
2018-08-23T13:02:33.644Z,39.29
2018-08-23T13:05:01.337Z,38.38
2018-08-23T13:07:29.057Z,35.69
2018-08-23T13:09:56.769Z,38.06
2018-08-23T13:12:24.452Z,38.85
2018-08-23T13:14:52.217Z,38.51
2018-08-23T13:17:19.921Z,39.34
2018-08-23T13:19:50.935Z,39.12
2018-08-23T13:22:24.428Z,38.66
2018-08-23T13:24:57.789Z,36.98
2018-08-23T13:27:29.989Z,37.69
2018-08-23T13:29:57.924Z,38.42
2018-08-23T13:32:25.960Z,39.54
2018-08-23T13:34:53.694Z,40.22
2018-08-23T13:37:21.420Z,41.37
2018-08-23T13:39:49.245Z,41.84
2018-08-23T13:42:17.040Z,42.52
2018-08-23T13:44:44.812Z,42.05
2018-08-23T13:47:12.568Z,37.10
2018-08-23T13:49:40.319Z,41.57
2018-08-23T13:52:08.145Z,40.88
2018-08-23T13:54:36.043Z,39.82
2018-08-23T13:57:03.842Z,40.60
2018-08-23T13:59:31.604Z,41.80
2018-08-23T14:01:59.430Z,42.57
2018-08-23T14:04:27.153Z,40.82
2018-08-23T14:06:54.911Z,41.78
2018-08-23T14:09:22.695Z,39.94
2018-08-23T14:11:50.415Z,40.72
2018-08-23T14:14:18.172Z,40.81
2018-08-23T14:16:45.945Z,41.22
2018-08-23T14:19:13.750Z,40.70
2018-08-23T14:21:41.520Z,40.99
2018-08-23T14:24:09.312Z,41.46
2018-08-23T14:26:37.085Z,41.31
2018-08-23T14:29:05.049Z,41.21
2018-08-23T14:31:32.813Z,41.83
2018-08-23T14:34:00.666Z,40.57
2018-08-23T14:36:28.501Z,41.73
2018-08-23T14:38:56.296Z,42.42
2018-08-23T14:41:24.046Z,41.47
2018-08-23T14:43:51.750Z,41.76
2018-08-23T14:46:25.123Z,43.69
2018-08-23T14:48:52.819Z,42.64
2018-08-23T14:51:20.535Z,43.66
2018-08-23T14:53:48.756Z,40.99
2018-08-23T14:57:26.230Z,44.54
2018-08-23T14:59:53.970Z,43.51
2018-08-23T15:02:21.738Z,43.63
2018-08-23T15:04:49.440Z,42.31
2018-08-23T15:07:17.516Z,44.31
2018-08-23T15:09:45.418Z,44.24
2018-08-23T15:12:13.152Z,45.83
2018-08-23T15:14:41.072Z,45.83
2018-08-23T15:17:09.441Z,44.63
2018-08-23T15:19:37.272Z,45.66
2018-08-23T15:22:05.286Z,46.67
2018-08-23T15:24:33.047Z,45.21
2018-08-23T15:27:00.809Z,46.06
2018-08-23T15:29:28.670Z,46.55
2018-08-23T15:31:56.436Z,43.85
2018-08-23T15:34:24.162Z,47.50
2018-08-23T15:36:51.989Z,47.60
2018-08-23T15:39:19.730Z,46.43
2018-08-23T15:41:47.437Z,46.73
2018-08-23T15:44:15.200Z,47.76
2018-08-23T15:46:47.742Z,48.25
2018-08-23T15:49:15.780Z,46.64
2018-08-23T15:51:44.200Z,47.74
2018-08-23T15:54:15.711Z,47.70
2018-08-23T15:56:43.460Z,49.14
2018-08-23T15:59:11.343Z,50.76
2018-08-23T16:01:39.116Z,48.50
2018-08-23T16:04:06.839Z,49.63
2018-08-23T16:06:34.548Z,50.09
2018-08-23T16:09:02.351Z,49.78
2018-08-23T16:11:30.136Z,50.96
2018-08-23T16:13:57.868Z,50.39
2018-08-23T16:16:31.241Z,50.50
2018-08-23T16:19:04.496Z,51.20
2018-08-23T16:21:36.439Z,51.13
2018-08-23T16:24:04.224Z,52.10
2018-08-23T16:26:37.440Z,52.34
2018-08-23T16:29:05.281Z,52.18
2018-08-23T16:31:33.020Z,52.40
2018-08-23T16:34:00.905Z,52.85
2018-08-23T16:36:28.667Z,52.90
2018-08-23T16:38:56.396Z,53.56
2018-08-23T16:41:24.182Z,52.23
2018-08-23T16:43:51.930Z,53.95
2018-08-23T16:46:19.712Z,55.82
2018-08-23T16:48:47.442Z,54.72
2018-08-23T16:51:15.543Z,55.14
2018-08-23T16:53:43.680Z,55.32
2018-08-23T16:56:11.417Z,55.58
2018-08-23T16:58:39.241Z,55.45
2018-08-23T17:01:07.073Z,55.96
2018-08-23T17:03:34.847Z,55.41
2018-08-23T17:06:02.583Z,55.72
2018-08-23T17:08:30.416Z,56.26
2018-08-23T17:10:58.173Z,56.30
2018-08-23T17:13:31.418Z,56.34
2018-08-23T17:16:04.955Z,57.03
2018-08-23T17:18:32.754Z,57.23
2018-08-23T17:21:00.437Z,57.18
2018-08-23T17:23:28.215Z,57.41
2018-08-23T17:25:55.925Z,58.29
2018-08-23T17:28:23.686Z,59.22
2018-08-23T17:30:51.430Z,60.10
2018-08-23T17:33:19.344Z,61.45
2018-08-23T17:35:47.192Z,61.71
2018-08-23T17:38:14.911Z,62.55
2018-08-23T17:40:42.665Z,61.68
2018-08-23T17:43:10.429Z,61.66
2018-08-23T17:45:38.141Z,62.42
2018-08-23T17:48:05.961Z,63.47
2018-08-23T17:50:33.739Z,64.07
2018-08-23T17:53:01.622Z,64.77
2018-08-23T17:55:29.378Z,64.73
2018-08-23T17:57:57.182Z,64.29
2018-08-23T18:00:25.020Z,65.42
2018-08-23T18:02:52.763Z,64.94
2018-08-23T18:05:20.481Z,65.86
2018-08-23T18:07:48.235Z,65.88
2018-08-23T18:10:15.977Z,65.60
2018-08-23T18:12:43.704Z,66.73
2018-08-23T18:15:11.412Z,66.71
2018-08-23T18:17:39.846Z,66.91
2018-08-23T18:20:07.772Z,66.81
2018-08-23T18:22:35.908Z,67.26
2018-08-23T18:25:03.720Z,68.03
2018-08-23T18:27:31.443Z,68.94
2018-08-23T18:29:59.158Z,68.22
2018-08-23T18:32:26.963Z,68.71
2018-08-23T18:34:54.778Z,68.53
2018-08-23T18:37:22.521Z,69.22
2018-08-23T18:39:50.245Z,69.03
2018-08-23T18:42:17.958Z,69.82
2018-08-23T18:44:45.725Z,70.45
2018-08-23T18:47:13.819Z,71.12
2018-08-23T18:49:41.537Z,70.06
2018-08-23T18:52:09.284Z,70.15
2018-08-23T18:54:36.991Z,70.93
2018-08-23T18:57:05.316Z,71.81
2018-08-23T18:59:33.140Z,72.58
2018-08-23T19:02:00.863Z,72.20
2018-08-23T19:04:28.600Z,73.27
2018-08-23T19:06:56.428Z,72.41
2018-08-23T19:09:24.119Z,72.84
2018-08-23T19:11:51.862Z,72.89
2018-08-23T19:14:19.614Z,73.47
2018-08-23T19:16:52.812Z,73.12
2018-08-23T19:19:20.521Z,72.75
2018-08-23T19:21:48.201Z,72.96
2018-08-23T19:24:15.944Z,73.74
2018-08-23T19:26:43.721Z,73.16
2018-08-23T19:29:11.456Z,73.54
2018-08-23T19:31:39.189Z,73.17
2018-08-23T19:34:06.896Z,73.40
2018-08-23T19:36:34.676Z,75.00
2018-08-23T19:39:02.479Z,75.45
2018-08-23T19:41:30.197Z,75.46
2018-08-23T19:43:57.892Z,76.24
2018-08-23T19:46:31.256Z,75.16
2018-08-23T19:49:04.520Z,75.43
2018-08-23T19:51:32.256Z,76.19
2018-08-23T19:54:00.003Z,76.60
2018-08-23T19:56:27.679Z,76.38
2018-08-23T19:58:55.355Z,76.10
2018-08-23T20:01:23.077Z,76.45
2018-08-23T20:03:50.756Z,75.97
2018-08-23T20:06:18.532Z,77.01
2018-08-23T20:08:46.244Z,77.41
2018-08-23T20:11:13.916Z,76.54
2018-08-23T20:13:41.656Z,77.19
2018-08-23T20:16:09.390Z,78.31
2018-08-23T20:18:37.083Z,78.61
2018-08-23T20:21:05.212Z,77.85
2018-08-23T20:23:32.923Z,79.06
2018-08-23T20:26:00.628Z,79.07
2018-08-23T20:28:28.367Z,80.29
2018-08-23T20:30:56.057Z,78.36
2018-08-23T20:33:23.768Z,79.21
2018-08-23T20:35:51.500Z,79.16
2018-08-23T20:38:19.249Z,77.33
2018-08-23T20:40:46.956Z,78.71
2018-08-23T20:43:14.653Z,79.10
2018-08-23T20:45:42.411Z,77.95
2018-08-23T20:48:10.188Z,77.91
2018-08-23T20:50:38.171Z,78.91
2018-08-23T20:53:06.109Z,79.80
2018-08-23T20:55:33.820Z,78.64
2018-08-23T20:58:01.643Z,79.29
2018-08-23T21:00:29.352Z,78.81
2018-08-23T21:02:57.025Z,78.91
2018-08-23T21:05:24.770Z,80.17
2018-08-23T21:07:52.458Z,80.90
2018-08-23T21:10:20.192Z,80.25
2018-08-23T21:12:47.872Z,81.45
2018-08-23T21:15:15.552Z,79.11
2018-08-23T21:17:43.276Z,79.86
2018-08-23T21:20:10.957Z,80.01
2018-08-23T21:22:38.644Z,80.68
2018-08-23T21:25:06.346Z,80.24
2018-08-23T21:27:34.074Z,81.10
2018-08-23T21:30:01.756Z,80.59
2018-08-23T21:32:29.468Z,80.41
2018-08-23T21:34:57.180Z,80.13
2018-08-23T21:37:24.855Z,81.20
2018-08-23T21:39:52.592Z,80.76
2018-08-23T21:42:20.335Z,81.13
2018-08-23T21:44:48.068Z,81.02
2018-08-23T21:47:15.837Z,82.11
2018-08-23T21:49:43.592Z,82.39
2018-08-23T21:52:11.277Z,81.45
2018-08-23T21:54:38.973Z,82.44
2018-08-23T21:57:06.713Z,82.96
2018-08-23T21:59:34.413Z,82.28
2018-08-23T22:02:07.805Z,80.48
2018-08-23T22:04:41.042Z,81.85
2018-08-23T22:07:08.757Z,82.05
2018-08-23T22:09:36.500Z,83.19
2018-08-23T22:12:04.236Z,83.04
2018-08-23T22:14:31.993Z,82.43
2018-08-23T22:16:59.675Z,82.61
2018-08-23T22:19:27.367Z,83.09
2018-08-23T22:21:55.116Z,81.27
2018-08-23T22:24:22.804Z,82.85
2018-08-23T22:26:50.564Z,82.86
2018-08-23T22:29:18.307Z,81.97
2018-08-23T22:31:46.008Z,82.83
2018-08-23T22:34:13.787Z,83.30
2018-08-23T22:36:41.476Z,83.77
2018-08-23T22:39:09.196Z,83.79
2018-08-23T22:41:36.889Z,82.02
2018-08-23T22:44:04.648Z,81.12
2018-08-23T22:46:32.348Z,82.28
2018-08-23T22:49:00.131Z,81.57
2018-08-23T22:51:27.917Z,81.77
2018-08-23T22:53:55.629Z,82.82
2018-08-23T22:56:23.332Z,83.30
2018-08-23T22:58:51.046Z,83.55
2018-08-23T23:01:18.771Z,82.98
2018-08-23T23:03:51.923Z,83.04
2018-08-23T23:06:19.636Z,83.22
2018-08-23T23:08:47.348Z,83.15
2018-08-23T23:11:15.064Z,81.33
2018-08-23T23:13:42.765Z,82.44
2018-08-23T23:16:10.454Z,82.71
2018-08-23T23:18:38.168Z,82.79
2018-08-23T23:21:05.924Z,82.12
2018-08-23T23:23:33.612Z,82.41
2018-08-23T23:26:01.308Z,82.36
2018-08-23T23:28:28.993Z,82.32
2018-08-23T23:30:56.896Z,82.33
2018-08-23T23:33:24.591Z,81.49
2018-08-23T23:35:52.296Z,82.24
2018-08-23T23:38:20.012Z,81.82
2018-08-23T23:40:47.690Z,82.34
2018-08-23T23:43:15.421Z,82.79
2018-08-23T23:45:43.146Z,82.45
2018-08-23T23:48:11.460Z,83.03
2018-08-23T23:50:39.208Z,82.90
2018-08-23T23:53:07.029Z,82.60
2018-08-23T23:55:34.719Z,82.21
2018-08-23T23:58:02.514Z,81.00
